createdAt,value
2018-08-19T00:00:26.841Z,1013.64
2018-08-19T00:01:26.813Z,1013.63
2018-08-19T00:02:26.782Z,1013.62
2018-08-19T00:03:26.766Z,1013.64
2018-08-19T00:04:26.731Z,1013.71
2018-08-19T00:05:26.730Z,1013.70
2018-08-19T00:06:26.679Z,1013.71
2018-08-19T00:07:26.647Z,1013.69
2018-08-19T00:08:26.630Z,1013.73
2018-08-19T00:09:26.623Z,1013.75
2018-08-19T00:10:26.599Z,1013.70
2018-08-19T00:11:26.587Z,1013.68
2018-08-19T00:12:26.523Z,1013.67
2018-08-19T00:13:26.529Z,1013.67
2018-08-19T00:14:26.493Z,1013.66
2018-08-19T00:15:26.507Z,1013.66
2018-08-19T00:16:26.460Z,1013.67
2018-08-19T00:17:26.415Z,1013.70
2018-08-19T00:19:26.339Z,1013.67
2018-08-19T00:20:26.321Z,1013.67
2018-08-19T00:21:26.295Z,1013.67
2018-08-19T00:22:26.270Z,1013.73
2018-08-19T00:23:26.247Z,1013.69
2018-08-19T00:24:26.217Z,1013.74
2018-08-19T00:25:26.186Z,1013.73
2018-08-19T00:26:26.181Z,1013.75
2018-08-19T00:27:27.102Z,1013.76
2018-08-19T00:28:26.109Z,1013.78
2018-08-19T00:29:26.088Z,1013.77
2018-08-19T00:30:26.109Z,1013.81
2018-08-19T00:31:26.033Z,1013.80
2018-08-19T00:32:26.012Z,1013.84
2018-08-19T00:33:25.983Z,1013.81
2018-08-19T00:34:25.967Z,1013.83
2018-08-19T00:35:25.935Z,1013.82
2018-08-19T00:36:25.926Z,1013.81
2018-08-19T00:37:25.902Z,1013.80
2018-08-19T00:38:25.904Z,1013.83
2018-08-19T00:39:25.860Z,1013.83
2018-08-19T00:40:25.799Z,1013.85
2018-08-19T00:41:25.774Z,1013.82
2018-08-19T00:42:25.746Z,1013.84
2018-08-19T00:43:25.802Z,1013.84
2018-08-19T00:44:25.754Z,1013.84
2018-08-19T00:45:25.685Z,1013.85
2018-08-19T00:46:25.686Z,1013.84
2018-08-19T00:47:25.620Z,1013.83
2018-08-19T00:48:25.603Z,1013.84
2018-08-19T00:49:25.589Z,1013.83
2018-08-19T00:50:25.550Z,1013.79
2018-08-19T00:51:25.535Z,1013.79
2018-08-19T00:52:25.487Z,1013.79
2018-08-19T00:53:25.457Z,1013.80
2018-08-19T00:54:25.452Z,1013.83
2018-08-19T00:55:25.474Z,1013.78
2018-08-19T00:56:25.387Z,1013.84
2018-08-19T00:57:25.364Z,1013.84
2018-08-19T00:58:25.332Z,1013.87
2018-08-19T00:59:25.349Z,1013.89
2018-08-19T01:00:25.278Z,1013.88
2018-08-19T01:01:25.267Z,1013.86
2018-08-19T01:03:25.265Z,1013.84
2018-08-19T01:04:25.186Z,1013.83
2018-08-19T01:05:25.157Z,1013.81
2018-08-19T01:06:25.149Z,1013.81
2018-08-19T01:07:25.097Z,1013.85
2018-08-19T01:08:25.107Z,1013.84
2018-08-19T01:09:25.044Z,1013.83
2018-08-19T01:10:25.016Z,1013.84
2018-08-19T01:11:25.001Z,1013.84
2018-08-19T01:12:24.992Z,1013.88
2018-08-19T01:13:24.967Z,1013.87
2018-08-19T01:14:24.921Z,1013.88
2018-08-19T01:15:24.908Z,1013.91
2018-08-19T01:16:24.899Z,1013.91
2018-08-19T01:17:24.852Z,1013.89
2018-08-19T01:18:24.833Z,1013.88
2018-08-19T01:19:24.783Z,1013.91
2018-08-19T01:20:24.776Z,1013.91
2018-08-19T01:21:24.730Z,1013.88
2018-08-19T01:22:24.771Z,1013.93
2018-08-19T01:23:24.697Z,1013.91
2018-08-19T01:24:24.654Z,1013.91
2018-08-19T01:25:24.640Z,1013.93
2018-08-19T01:26:24.599Z,1013.97
2018-08-19T01:27:24.575Z,1013.91
2018-08-19T01:28:24.560Z,1013.95
2018-08-19T01:29:24.520Z,1014.00
2018-08-19T01:30:24.503Z,1013.99
2018-08-19T01:31:24.508Z,1014.03
2018-08-19T01:32:24.442Z,1014.02
2018-08-19T01:33:24.430Z,1014.02
2018-08-19T01:34:24.399Z,1013.98
2018-08-19T01:35:24.387Z,1013.98
2018-08-19T01:36:24.356Z,1013.99
2018-08-19T01:37:24.321Z,1014.02
2018-08-19T01:38:24.284Z,1014.02
2018-08-19T01:39:24.297Z,1013.99
2018-08-19T01:40:24.259Z,1014.02
2018-08-19T01:41:24.207Z,1013.97
2018-08-19T01:42:24.182Z,1013.98
2018-08-19T01:43:24.216Z,1014.00
2018-08-19T01:44:24.124Z,1014.01
2018-08-19T01:45:24.124Z,1013.97
2018-08-19T01:46:24.081Z,1013.99
2018-08-19T01:47:24.108Z,1013.98
2018-08-19T01:48:24.017Z,1014.00
2018-08-19T01:49:23.992Z,1014.04
2018-08-19T01:50:23.971Z,1014.02
2018-08-19T01:51:23.960Z,1014.02
2018-08-19T01:52:23.966Z,1014.02
2018-08-19T01:53:23.889Z,1014.01
2018-08-19T01:54:23.866Z,1014.01
2018-08-19T01:55:23.864Z,1014.00
2018-08-19T01:56:23.818Z,1013.98
2018-08-19T01:57:23.811Z,1014.02
2018-08-19T01:58:23.759Z,1014.05
2018-08-19T01:59:23.735Z,1014.04
2018-08-19T02:00:23.717Z,1014.01
2018-08-19T02:01:23.677Z,1014.05
2018-08-19T02:02:23.685Z,1014.08
2018-08-19T02:04:23.639Z,1014.10
2018-08-19T02:05:23.573Z,1014.09
2018-08-19T02:06:23.552Z,1014.12
2018-08-19T02:07:23.541Z,1014.10
2018-08-19T02:08:23.487Z,1014.11
2018-08-19T02:09:23.466Z,1014.10
2018-08-19T02:10:23.459Z,1014.11
2018-08-19T02:11:24.176Z,1014.06
2018-08-19T02:12:23.388Z,1014.07
2018-08-19T02:13:23.359Z,1014.07
2018-08-19T02:14:23.339Z,1014.05
2018-08-19T02:15:23.309Z,1014.02
2018-08-19T02:16:23.297Z,1014.01
2018-08-19T02:17:23.269Z,1014.01
2018-08-19T02:18:23.232Z,1013.99
2018-08-19T02:19:23.200Z,1013.99
2018-08-19T02:20:23.196Z,1013.99
2018-08-19T02:21:23.180Z,1013.98
2018-08-19T02:22:23.137Z,1013.99
2018-08-19T02:23:23.116Z,1013.97
2018-08-19T02:24:23.070Z,1013.98
2018-08-19T02:25:23.060Z,1013.96
2018-08-19T02:26:23.074Z,1014.01
2018-08-19T02:27:22.991Z,1013.98
2018-08-19T02:28:22.983Z,1013.99
2018-08-19T02:29:22.954Z,1014.01
2018-08-19T02:30:22.996Z,1013.99
2018-08-19T02:31:22.889Z,1014.01
2018-08-19T02:32:22.869Z,1014.02
2018-08-19T02:33:22.842Z,1013.97
2018-08-19T02:34:22.886Z,1013.95
2018-08-19T02:35:22.800Z,1013.94
2018-08-19T02:36:22.807Z,1013.95
2018-08-19T02:37:22.739Z,1013.93
2018-08-19T02:38:22.727Z,1013.93
2018-08-19T02:39:22.672Z,1013.92
2018-08-19T02:41:22.633Z,1013.85
2018-08-19T02:42:22.595Z,1013.84
2018-08-19T02:43:22.573Z,1013.84
2018-08-19T02:44:22.559Z,1013.85
2018-08-19T02:45:22.554Z,1013.86
2018-08-19T02:46:22.491Z,1013.80
2018-08-19T02:47:22.513Z,1013.84
2018-08-19T02:49:22.410Z,1013.83
2018-08-19T02:50:22.400Z,1013.84
2018-08-19T02:51:22.354Z,1013.83
2018-08-19T02:52:22.330Z,1013.84
2018-08-19T02:53:22.303Z,1013.84
2018-08-19T02:54:22.289Z,1013.82
2018-08-19T02:55:22.249Z,1013.81
2018-08-19T02:56:22.223Z,1013.79
2018-08-19T02:57:22.197Z,1013.77
2018-08-19T02:58:22.172Z,1013.79
2018-08-19T02:59:22.148Z,1013.81
2018-08-19T03:00:22.116Z,1013.78
2018-08-19T03:01:22.102Z,1013.81
2018-08-19T03:02:22.078Z,1013.83
2018-08-19T03:03:22.095Z,1013.87
2018-08-19T03:04:22.009Z,1013.83
2018-08-19T03:05:21.985Z,1013.85
2018-08-19T03:06:21.964Z,1013.85
2018-08-19T03:07:21.966Z,1013.82
2018-08-19T03:08:22.022Z,1013.84
2018-08-19T03:09:21.903Z,1013.83
2018-08-19T03:10:22.704Z,1013.83
2018-08-19T03:11:21.876Z,1013.84
2018-08-19T03:12:21.798Z,1013.79
2018-08-19T03:13:22.687Z,1013.83
2018-08-19T03:14:21.764Z,1013.79
2018-08-19T03:15:21.748Z,1013.81
2018-08-19T03:16:21.694Z,1013.81
2018-08-19T03:17:21.673Z,1013.79
2018-08-19T03:18:21.681Z,1013.82
2018-08-19T03:19:21.614Z,1013.81
2018-08-19T03:20:21.600Z,1013.82
2018-08-19T03:21:21.574Z,1013.84
2018-08-19T03:22:21.533Z,1013.83
2018-08-19T03:23:21.521Z,1013.85
2018-08-19T03:24:21.516Z,1013.84
2018-08-19T03:25:21.459Z,1013.85
2018-08-19T03:26:21.432Z,1013.89
2018-08-19T03:27:21.412Z,1013.85
2018-08-19T03:28:21.382Z,1013.87
2018-08-19T03:29:21.370Z,1013.89
2018-08-19T03:30:21.340Z,1013.88
2018-08-19T03:31:21.297Z,1013.86
2018-08-19T03:32:21.305Z,1013.85
2018-08-19T03:33:21.254Z,1013.81
2018-08-19T03:34:21.224Z,1013.81
2018-08-19T03:35:21.197Z,1013.78
2018-08-19T03:36:21.179Z,1013.82
2018-08-19T03:37:21.212Z,1013.78
2018-08-19T03:38:21.130Z,1013.77
2018-08-19T03:39:21.110Z,1013.78
2018-08-19T03:40:21.083Z,1013.73
2018-08-19T03:41:21.068Z,1013.71
2018-08-19T03:42:21.056Z,1013.71
2018-08-19T03:43:20.984Z,1013.71
2018-08-19T03:44:20.960Z,1013.77
2018-08-19T03:45:20.956Z,1013.76
2018-08-19T03:46:20.919Z,1013.78
2018-08-19T03:47:20.880Z,1013.74
2018-08-19T03:48:20.874Z,1013.73
2018-08-19T03:49:20.835Z,1013.76
2018-08-19T03:50:20.810Z,1013.73
2018-08-19T03:51:20.804Z,1013.76
2018-08-19T03:52:20.783Z,1013.76
2018-08-19T03:53:20.733Z,1013.75
2018-08-19T03:54:20.700Z,1013.76
2018-08-19T03:55:20.671Z,1013.73
2018-08-19T03:56:20.701Z,1013.77
2018-08-19T03:57:20.649Z,1013.74
2018-08-19T03:58:20.585Z,1013.74
2018-08-19T03:59:20.568Z,1013.76
2018-08-19T04:00:20.564Z,1013.78
2018-08-19T04:01:20.531Z,1013.76
2018-08-19T04:02:20.487Z,1013.77
2018-08-19T04:03:20.454Z,1013.79
2018-08-19T04:04:20.462Z,1013.81
2018-08-19T04:05:20.393Z,1013.77
2018-08-19T04:06:20.397Z,1013.81
2018-08-19T04:07:20.391Z,1013.76
2018-08-19T04:08:20.325Z,1013.77
2018-08-19T04:09:20.294Z,1013.76
2018-08-19T04:10:20.274Z,1013.73
2018-08-19T04:11:20.251Z,1013.76
2018-08-19T04:12:20.230Z,1013.78
2018-08-19T04:13:20.221Z,1013.77
2018-08-19T04:14:20.173Z,1013.77
2018-08-19T04:15:20.137Z,1013.75
2018-08-19T04:16:20.112Z,1013.75
2018-08-19T04:17:20.099Z,1013.74
2018-08-19T04:18:20.067Z,1013.73
2018-08-19T04:19:20.034Z,1013.69
2018-08-19T04:21:19.983Z,1013.69
2018-08-19T04:22:20.000Z,1013.67
2018-08-19T04:23:19.952Z,1013.66
2018-08-19T04:24:19.894Z,1013.62
2018-08-19T04:25:19.891Z,1013.59
2018-08-19T04:26:19.846Z,1013.57
2018-08-19T04:27:19.846Z,1013.59
2018-08-19T04:28:19.789Z,1013.63
2018-08-19T04:29:19.767Z,1013.60
2018-08-19T04:30:19.759Z,1013.64
2018-08-19T04:31:19.722Z,1013.59
2018-08-19T04:32:19.691Z,1013.63
2018-08-19T04:33:19.665Z,1013.65
2018-08-19T04:34:19.677Z,1013.62
2018-08-19T04:35:19.610Z,1013.65
2018-08-19T04:37:19.570Z,1013.65
2018-08-19T04:38:19.530Z,1013.67
2018-08-19T04:39:19.519Z,1013.66
2018-08-19T04:40:19.489Z,1013.69
2018-08-19T04:41:19.450Z,1013.71
2018-08-19T04:42:19.456Z,1013.71
2018-08-19T04:43:19.408Z,1013.72
2018-08-19T04:44:19.373Z,1013.73
2018-08-19T04:45:19.347Z,1013.70
2018-08-19T04:46:19.326Z,1013.71
2018-08-19T04:47:19.299Z,1013.69
2018-08-19T04:48:19.270Z,1013.71
2018-08-19T04:49:19.267Z,1013.70
2018-08-19T04:50:19.230Z,1013.69
2018-08-19T04:51:19.193Z,1013.67
2018-08-19T04:52:19.173Z,1013.67
2018-08-19T04:53:19.139Z,1013.66
2018-08-19T04:54:19.127Z,1013.66
2018-08-19T04:55:19.092Z,1013.66
2018-08-19T04:56:19.092Z,1013.67
2018-08-19T04:57:19.047Z,1013.70
2018-08-19T04:58:19.008Z,1013.74
2018-08-19T04:59:19.028Z,1013.74
2018-08-19T05:00:18.961Z,1013.72
2018-08-19T05:01:26.881Z,1013.73
2018-08-19T05:03:12.080Z,1013.74
2018-08-19T05:04:12.841Z,1013.69
2018-08-19T05:06:05.388Z,1013.74
2018-08-19T05:07:06.012Z,1013.74
2018-08-19T05:08:59.901Z,1013.74
2018-08-19T05:09:59.875Z,1013.75
2018-08-19T05:11:53.534Z,1013.78
2018-08-19T05:12:53.561Z,1013.80
2018-08-19T05:14:47.127Z,1013.79
2018-08-19T05:15:47.048Z,1013.81
2018-08-19T05:17:40.377Z,1013.80
2018-08-19T05:18:40.338Z,1013.77
2018-08-19T05:20:33.748Z,1013.83
2018-08-19T05:21:33.704Z,1013.82
2018-08-19T05:23:26.508Z,1013.84
2018-08-19T05:24:26.495Z,1013.83
2018-08-19T05:26:20.257Z,1013.85
2018-08-19T05:27:20.861Z,1013.88
2018-08-19T05:29:13.060Z,1013.86
2018-08-19T05:30:13.022Z,1013.88
2018-08-19T05:32:06.648Z,1013.85
2018-08-19T05:33:06.634Z,1013.86
2018-08-19T05:34:59.778Z,1013.80
2018-08-19T05:35:59.732Z,1013.80
2018-08-19T05:37:52.565Z,1013.84
2018-08-19T05:38:52.542Z,1013.83
2018-08-19T05:40:45.446Z,1013.83
2018-08-19T05:41:45.322Z,1013.82
2018-08-19T05:43:38.647Z,1013.81
2018-08-19T05:44:38.648Z,1013.82
2018-08-19T05:46:31.942Z,1013.84
2018-08-19T05:47:31.907Z,1013.93
2018-08-19T05:49:25.249Z,1013.90
2018-08-19T05:50:25.188Z,1013.94
2018-08-19T05:52:18.848Z,1013.91
2018-08-19T05:53:18.777Z,1013.89
2018-08-19T05:55:12.113Z,1013.95
2018-08-19T05:56:12.082Z,1013.94
2018-08-19T05:58:05.216Z,1013.88
2018-08-19T05:59:05.161Z,1013.90
2018-08-19T06:00:58.506Z,1013.94
2018-08-19T06:01:58.475Z,1013.91
2018-08-19T06:03:51.297Z,1013.95
2018-08-19T06:04:51.243Z,1013.96
2018-08-19T06:06:44.094Z,1013.98
2018-08-19T06:07:44.662Z,1013.95
2018-08-19T06:08:44.034Z,1013.94
2018-08-19T06:09:43.995Z,1013.97
2018-08-19T06:10:43.987Z,1013.95
2018-08-19T06:11:43.963Z,1013.94
2018-08-19T06:12:43.925Z,1013.94
2018-08-19T06:13:43.923Z,1013.93
2018-08-19T06:14:43.882Z,1013.93
2018-08-19T06:15:43.872Z,1013.90
2018-08-19T06:16:43.833Z,1013.94
2018-08-19T06:17:43.815Z,1013.93
2018-08-19T06:18:43.803Z,1013.95
2018-08-19T06:19:43.759Z,1013.94
2018-08-19T06:20:43.757Z,1013.93
2018-08-19T06:21:43.719Z,1013.97
2018-08-19T06:22:43.707Z,1014.02
2018-08-19T06:23:43.680Z,1014.01
2018-08-19T06:24:43.725Z,1013.99
2018-08-19T06:25:43.623Z,1014.00
2018-08-19T06:26:43.604Z,1014.02
2018-08-19T06:27:43.587Z,1014.01
2018-08-19T06:28:43.577Z,1014.03
2018-08-19T06:29:43.544Z,1014.02
2018-08-19T06:30:43.516Z,1014.01
2018-08-19T06:31:43.487Z,1014.03
2018-08-19T06:32:43.468Z,1013.99
2018-08-19T06:33:43.443Z,1014.01
2018-08-19T06:34:43.483Z,1014.02
2018-08-19T06:36:43.371Z,1014.05
2018-08-19T06:37:43.364Z,1014.04
2018-08-19T06:38:43.333Z,1014.00
2018-08-19T06:39:43.313Z,1014.03
2018-08-19T06:40:43.282Z,1014.04
2018-08-19T06:41:43.260Z,1014.05
2018-08-19T06:42:43.261Z,1014.07
2018-08-19T06:43:43.221Z,1014.05
2018-08-19T06:44:43.208Z,1014.10
2018-08-19T06:45:43.184Z,1014.16
2018-08-19T06:46:43.156Z,1014.11
2018-08-19T06:47:43.132Z,1014.12
2018-08-19T06:48:43.111Z,1014.13
2018-08-19T06:49:43.093Z,1014.19
2018-08-19T06:50:43.069Z,1014.17
2018-08-19T06:51:43.049Z,1014.17
2018-08-19T06:52:43.021Z,1014.16
2018-08-19T06:53:43.016Z,1014.16
2018-08-19T06:54:42.984Z,1014.18
2018-08-19T06:55:42.961Z,1014.17
2018-08-19T06:56:42.938Z,1014.18
2018-08-19T06:57:42.915Z,1014.20
2018-08-19T06:58:42.918Z,1014.18
2018-08-19T06:59:42.869Z,1014.18
2018-08-19T07:00:42.847Z,1014.19
2018-08-19T07:01:42.841Z,1014.21
2018-08-19T07:02:42.806Z,1014.19
2018-08-19T07:03:42.880Z,1014.20
2018-08-19T07:04:42.760Z,1014.20
2018-08-19T07:05:42.752Z,1014.18
2018-08-19T07:06:42.714Z,1014.21
2018-08-19T07:08:42.672Z,1014.16
2018-08-19T07:09:42.652Z,1014.17
2018-08-19T07:10:42.636Z,1014.18
2018-08-19T07:11:42.619Z,1014.17
2018-08-19T07:12:42.671Z,1014.20
2018-08-19T07:13:42.579Z,1014.21
2018-08-19T07:14:42.545Z,1014.19
2018-08-19T07:15:42.525Z,1014.15
2018-08-19T07:16:42.516Z,1014.11
2018-08-19T07:17:42.484Z,1014.12
2018-08-19T07:18:42.537Z,1014.09
2018-08-19T07:19:42.447Z,1014.13
2018-08-19T07:20:42.420Z,1014.17
2018-08-19T07:21:42.401Z,1014.14
2018-08-19T07:22:42.370Z,1014.15
2018-08-19T07:23:42.363Z,1014.14
2018-08-19T07:24:42.333Z,1014.17
2018-08-19T07:25:42.310Z,1014.15
2018-08-19T07:26:42.289Z,1014.17
2018-08-19T07:27:42.267Z,1014.15
2018-08-19T07:28:42.248Z,1014.15
2018-08-19T07:29:43.188Z,1014.16
2018-08-19T07:30:42.214Z,1014.21
2018-08-19T07:31:42.198Z,1014.17
2018-08-19T07:32:42.167Z,1014.19
2018-08-19T07:33:42.142Z,1014.23
2018-08-19T07:34:42.142Z,1014.24
2018-08-19T07:35:42.108Z,1014.21
2018-08-19T07:36:42.105Z,1014.17
2018-08-19T07:37:42.061Z,1014.17
2018-08-19T07:38:42.681Z,1014.15
2018-08-19T07:39:42.017Z,1014.13
2018-08-19T07:40:42.001Z,1014.15
2018-08-19T07:41:41.989Z,1014.15
2018-08-19T07:42:41.959Z,1014.13
2018-08-19T07:43:41.944Z,1014.16
2018-08-19T07:44:41.913Z,1014.11
2018-08-19T07:45:41.910Z,1014.14
2018-08-19T07:46:41.884Z,1014.10
2018-08-19T07:47:41.857Z,1014.11
2018-08-19T07:48:41.833Z,1014.11
2018-08-19T07:49:41.818Z,1014.07
2018-08-19T07:50:41.789Z,1014.09
2018-08-19T07:51:41.860Z,1014.09
2018-08-19T07:52:41.756Z,1014.10
2018-08-19T07:53:41.731Z,1014.12
2018-08-19T07:54:42.701Z,1014.13
2018-08-19T07:55:41.718Z,1014.12
2018-08-19T07:56:41.686Z,1014.12
2018-08-19T07:57:41.651Z,1014.12
2018-08-19T07:58:41.641Z,1014.14
2018-08-19T07:59:41.612Z,1014.11
2018-08-19T08:00:41.591Z,1014.10
2018-08-19T08:01:41.574Z,1014.11
2018-08-19T08:02:41.549Z,1014.10
2018-08-19T08:03:41.531Z,1014.07
2018-08-19T08:04:41.513Z,1014.12
2018-08-19T08:05:41.485Z,1014.09
2018-08-19T08:06:41.466Z,1014.08
2018-08-19T08:07:41.456Z,1014.11
2018-08-19T08:08:41.426Z,1014.11
2018-08-19T08:09:41.413Z,1014.12
2018-08-19T08:10:41.382Z,1014.10
2018-08-19T08:11:41.383Z,1014.06
2018-08-19T08:12:41.350Z,1014.08
2018-08-19T08:13:41.357Z,1014.07
2018-08-19T08:14:41.304Z,1014.11
2018-08-19T08:15:41.288Z,1014.12
2018-08-19T08:16:42.189Z,1014.09
2018-08-19T08:17:41.249Z,1014.12
2018-08-19T08:18:41.234Z,1014.15
2018-08-19T08:19:41.202Z,1014.14
2018-08-19T08:20:41.188Z,1014.13
2018-08-19T08:21:41.351Z,1014.16
2018-08-19T08:22:41.155Z,1014.09
2018-08-19T08:23:41.130Z,1014.08
2018-08-19T08:24:41.110Z,1014.09
2018-08-19T08:25:41.091Z,1014.11
2018-08-19T08:26:41.077Z,1014.14
2018-08-19T08:27:41.049Z,1014.14
2018-08-19T08:28:41.043Z,1014.13
2018-08-19T08:29:41.008Z,1014.12
2018-08-19T08:30:41.003Z,1014.13
2018-08-19T08:31:40.973Z,1014.11
2018-08-19T08:32:40.951Z,1014.13
2018-08-19T08:33:40.937Z,1014.11
2018-08-19T08:34:40.914Z,1014.08
2018-08-19T08:35:40.897Z,1014.10
2018-08-19T08:36:40.875Z,1014.13
2018-08-19T08:37:40.856Z,1014.14
2018-08-19T08:38:40.836Z,1014.13
2018-08-19T08:39:40.819Z,1014.12
2018-08-19T08:40:40.898Z,1014.09
2018-08-19T08:41:40.796Z,1014.13
2018-08-19T08:42:40.758Z,1014.07
2018-08-19T08:43:40.741Z,1014.06
2018-08-19T08:44:40.772Z,1014.07
2018-08-19T08:45:40.704Z,1014.11
2018-08-19T08:46:40.684Z,1014.11
2018-08-19T08:47:40.751Z,1014.09
2018-08-19T08:48:40.652Z,1014.08
2018-08-19T08:49:40.627Z,1014.04
2018-08-19T08:50:40.609Z,1014.02
2018-08-19T08:51:40.589Z,1014.06
2018-08-19T08:52:40.572Z,1014.04
2018-08-19T08:53:40.551Z,1013.98
2018-08-19T08:54:40.531Z,1013.97
2018-08-19T08:55:40.513Z,1013.95
2018-08-19T08:56:40.493Z,1013.96
2018-08-19T08:57:40.480Z,1013.95
2018-08-19T08:58:40.456Z,1013.94
2018-08-19T08:59:40.441Z,1013.92
2018-08-19T09:00:40.463Z,1013.96
2018-08-19T09:01:40.403Z,1013.93
2018-08-19T09:02:40.382Z,1013.93
2018-08-19T09:03:40.376Z,1013.94
2018-08-19T09:04:40.344Z,1013.92
2018-08-19T09:05:40.330Z,1013.93
2018-08-19T09:06:40.306Z,1013.89
2018-08-19T09:07:40.302Z,1013.90
2018-08-19T09:08:40.278Z,1013.89
2018-08-19T09:09:40.261Z,1013.92
2018-08-19T09:10:40.268Z,1013.84
2018-08-19T09:11:40.302Z,1013.84
2018-08-19T09:12:40.242Z,1013.87
2018-08-19T09:13:40.184Z,1013.82
2018-08-19T09:14:40.152Z,1013.84
2018-08-19T09:15:40.154Z,1013.85
2018-08-19T09:16:40.136Z,1013.84
2018-08-19T09:17:40.119Z,1013.86
2018-08-19T09:18:40.085Z,1013.86
2018-08-19T09:19:40.063Z,1013.80
2018-08-19T09:20:40.042Z,1013.80
2018-08-19T09:21:40.035Z,1013.76
2018-08-19T09:22:40.007Z,1013.75
2018-08-19T09:23:39.989Z,1013.70
2018-08-19T09:24:39.979Z,1013.69
2018-08-19T09:25:39.965Z,1013.70
2018-08-19T09:26:39.934Z,1013.69
2018-08-19T09:27:39.914Z,1013.66
2018-08-19T09:28:39.907Z,1013.65
2018-08-19T09:29:39.899Z,1013.70
2018-08-19T09:30:39.856Z,1013.67
2018-08-19T09:31:39.838Z,1013.64
2018-08-19T09:32:39.819Z,1013.62
2018-08-19T09:33:39.827Z,1013.65
2018-08-19T09:34:39.785Z,1013.69
2018-08-19T09:35:39.766Z,1013.65
2018-08-19T09:36:39.745Z,1013.63
2018-08-19T09:37:39.744Z,1013.56
2018-08-19T09:38:39.717Z,1013.59
2018-08-19T09:39:39.688Z,1013.59
2018-08-19T09:40:39.727Z,1013.55
2018-08-19T09:41:39.670Z,1013.60
2018-08-19T09:42:39.671Z,1013.59
2018-08-19T09:43:39.617Z,1013.58
2018-08-19T09:44:39.600Z,1013.65
2018-08-19T09:45:39.680Z,1013.61
2018-08-19T09:46:39.565Z,1013.64
2018-08-19T09:47:39.568Z,1013.56
2018-08-19T09:48:39.523Z,1013.61
2018-08-19T09:49:39.524Z,1013.61
2018-08-19T09:50:39.539Z,1013.57
2018-08-19T09:51:39.472Z,1013.56
2018-08-19T09:52:39.458Z,1013.61
2018-08-19T09:53:39.459Z,1013.55
2018-08-19T09:54:39.413Z,1013.54
2018-08-19T09:55:39.400Z,1013.53
2018-08-19T09:56:39.382Z,1013.48
2018-08-19T09:57:39.407Z,1013.47
2018-08-19T09:58:39.340Z,1013.50
2018-08-19T09:59:39.335Z,1013.50
2018-08-19T10:00:39.310Z,1013.42
2018-08-19T10:01:39.315Z,1013.42
2018-08-19T10:02:40.243Z,1013.41
2018-08-19T10:03:39.248Z,1013.45
2018-08-19T10:04:39.235Z,1013.42
2018-08-19T10:05:39.224Z,1013.41
2018-08-19T10:06:39.194Z,1013.35
2018-08-19T10:07:39.232Z,1013.42
2018-08-19T10:08:39.163Z,1013.37
2018-08-19T10:09:39.148Z,1013.34
2018-08-19T10:10:39.118Z,1013.37
2018-08-19T10:11:39.103Z,1013.38
2018-08-19T10:12:39.089Z,1013.36
2018-08-19T10:13:39.125Z,1013.40
2018-08-19T10:14:39.048Z,1013.45
2018-08-19T10:15:39.030Z,1013.39
2018-08-19T10:16:39.013Z,1013.42
2018-08-19T10:17:39.016Z,1013.43
2018-08-19T10:18:38.971Z,1013.43
2018-08-19T10:19:38.959Z,1013.44
2018-08-19T10:20:38.933Z,1013.40
2018-08-19T10:21:38.926Z,1013.41
2018-08-19T10:22:38.898Z,1013.39
2018-08-19T10:23:38.884Z,1013.37
2018-08-19T10:24:38.860Z,1013.35
2018-08-19T10:25:38.842Z,1013.35
2018-08-19T10:26:38.830Z,1013.31
2018-08-19T10:27:38.806Z,1013.30
2018-08-19T10:28:38.789Z,1013.31
2018-08-19T10:29:38.786Z,1013.29
2018-08-19T10:30:38.750Z,1013.27
2018-08-19T10:31:38.733Z,1013.32
2018-08-19T10:32:38.711Z,1013.29
2018-08-19T10:33:38.709Z,1013.23
2018-08-19T10:34:38.677Z,1013.27
2018-08-19T10:35:38.660Z,1013.24
2018-08-19T10:36:38.643Z,1013.23
2018-08-19T10:37:38.640Z,1013.18
2018-08-19T10:38:38.605Z,1013.18
2018-08-19T10:39:38.592Z,1013.17
2018-08-19T10:40:38.567Z,1013.17
2018-08-19T10:41:38.558Z,1013.12
2018-08-19T10:42:38.533Z,1013.09
2018-08-19T10:43:38.523Z,1013.12
2018-08-19T10:44:38.493Z,1013.13
2018-08-19T10:45:38.489Z,1013.09
2018-08-19T10:46:38.464Z,1013.12
2018-08-19T10:47:38.463Z,1013.09
2018-08-19T10:48:38.418Z,1013.10
2018-08-19T10:49:38.415Z,1013.04
2018-08-19T10:50:38.389Z,1013.08
2018-08-19T10:51:38.388Z,1013.08
2018-08-19T10:52:38.354Z,1013.05
2018-08-19T10:53:38.343Z,1013.11
2018-08-19T10:54:38.321Z,1013.02
2018-08-19T10:55:38.303Z,1013.07
2018-08-19T10:56:38.281Z,1013.07
2018-08-19T10:57:38.273Z,1013.03
2018-08-19T10:58:38.244Z,1013.01
2018-08-19T10:59:38.228Z,1012.99
2018-08-19T11:00:38.210Z,1013.03
2018-08-19T11:01:38.190Z,1012.96
2018-08-19T11:02:38.171Z,1012.97
2018-08-19T11:03:38.153Z,1012.94
2018-08-19T11:04:38.131Z,1012.90
2018-08-19T11:05:38.127Z,1012.96
2018-08-19T11:06:38.109Z,1012.90
2018-08-19T11:07:38.082Z,1012.93
2018-08-19T11:08:38.072Z,1012.89
2018-08-19T11:09:38.107Z,1012.86
2018-08-19T11:10:38.034Z,1012.85
2018-08-19T11:11:38.013Z,1012.84
2018-08-19T11:12:37.997Z,1012.90
2018-08-19T11:13:37.978Z,1012.84
2018-08-19T11:14:37.957Z,1012.81
2018-08-19T11:15:37.944Z,1012.79
2018-08-19T11:16:37.930Z,1012.78
2018-08-19T11:17:37.904Z,1012.77
2018-08-19T11:18:37.891Z,1012.78
2018-08-19T11:19:37.879Z,1012.70
2018-08-19T11:20:37.854Z,1012.69
2018-08-19T11:21:37.834Z,1012.74
2018-08-19T11:22:37.832Z,1012.74
2018-08-19T11:23:37.809Z,1012.75
2018-08-19T11:24:37.792Z,1012.71
2018-08-19T11:25:37.763Z,1012.71
2018-08-19T11:26:37.757Z,1012.68
2018-08-19T11:27:37.770Z,1012.69
2018-08-19T11:28:37.728Z,1012.70
2018-08-19T11:29:37.699Z,1012.70
2018-08-19T11:30:37.684Z,1012.62
2018-08-19T11:31:37.662Z,1012.65
2018-08-19T11:32:37.646Z,1012.64
2018-08-19T11:33:37.635Z,1012.56
2018-08-19T11:34:37.615Z,1012.52
2018-08-19T11:35:37.591Z,1012.57
2018-08-19T11:36:37.575Z,1012.59
2018-08-19T11:37:37.564Z,1012.59
2018-08-19T11:38:37.541Z,1012.55
2018-08-19T11:39:37.526Z,1012.52
2018-08-19T11:40:37.511Z,1012.49
2018-08-19T11:41:37.488Z,1012.56
2018-08-19T11:42:37.469Z,1012.54
2018-08-19T11:43:37.466Z,1012.50
2018-08-19T11:44:37.439Z,1012.59
2018-08-19T11:45:37.421Z,1012.53
2018-08-19T11:46:37.399Z,1012.49
2018-08-19T11:47:37.399Z,1012.43
2018-08-19T11:48:37.432Z,1012.46
2018-08-19T11:49:37.357Z,1012.46
2018-08-19T11:50:37.352Z,1012.41
2018-08-19T11:51:37.324Z,1012.41
2018-08-19T11:52:37.301Z,1012.42
2018-08-19T11:53:37.286Z,1012.42
2018-08-19T11:54:37.276Z,1012.37
2018-08-19T11:55:37.248Z,1012.40
2018-08-19T11:56:37.234Z,1012.31
2018-08-19T11:57:37.217Z,1012.40
2018-08-19T11:58:37.204Z,1012.34
2018-08-19T11:59:37.185Z,1012.38
2018-08-19T12:00:37.177Z,1012.35
2018-08-19T12:01:37.152Z,1012.35
2018-08-19T12:02:37.133Z,1012.34
2018-08-19T12:03:37.116Z,1012.31
2018-08-19T12:04:37.104Z,1012.33
2018-08-19T12:05:37.082Z,1012.31
2018-08-19T12:06:37.074Z,1012.31
2018-08-19T12:07:37.045Z,1012.31
2018-08-19T12:08:37.036Z,1012.30
2018-08-19T12:09:37.027Z,1012.31
2018-08-19T12:10:36.996Z,1012.28
2018-08-19T12:11:36.991Z,1012.28
2018-08-19T12:12:36.971Z,1012.27
2018-08-19T12:13:36.945Z,1012.28
2018-08-19T12:14:36.932Z,1012.23
2018-08-19T12:15:36.915Z,1012.20
2018-08-19T12:16:36.895Z,1012.21
2018-08-19T12:17:36.890Z,1012.20
2018-08-19T12:18:36.865Z,1012.21
2018-08-19T12:19:36.864Z,1012.15
2018-08-19T12:20:36.826Z,1012.11
2018-08-19T12:21:36.826Z,1012.10
2018-08-19T12:22:36.798Z,1012.11
2018-08-19T12:23:36.781Z,1012.08
2018-08-19T12:24:36.771Z,1012.14
2018-08-19T12:25:36.750Z,1012.07
2018-08-19T12:26:36.730Z,1012.04
2018-08-19T12:27:36.810Z,1012.07
2018-08-19T12:28:36.700Z,1012.04
2018-08-19T12:29:36.680Z,1012.05
2018-08-19T12:30:36.675Z,1012.04
2018-08-19T12:31:36.651Z,1012.01
2018-08-19T12:32:36.642Z,1012.02
2018-08-19T12:33:36.611Z,1011.98
2018-08-19T12:34:36.604Z,1011.91